Time;durP1;ratioP1;P1;durP2;ratioP2;P2;SDS_P1;SDS_P2;PMS_P1;PMS_P2;Temp;Humidity;BMP_temperature;BMP_pressure;BME280_temperature;BME280_humidity;BME280_pressure;Samples;Min_cycle;Max_cycle;Signal;HPM_P1;HPM_P2
2022/05/13 00:06:05;;;;;;;2.8;8.9;;;;;;;-133;70.7;65270;;;;
2022/05/13 00:16:05;;;;;;;2.8;8.9;;;;;;;-133;75.7;65270;;;;
2022/05/13 00:26:05;;;;;;;2.8;8.9;;;;;;;-133;77.4;65270;;;;
2022/05/13 00:36:05;;;;;;;4.7;9.7;;;;;;;-133;78.4;65270;;;;
2022/05/13 00:47:05;;;;;;;4.7;9.7;;;;;;;-133;76.9;65270;;;;
2022/05/13 00:57:05;;;;;;;5.1;9.3;;;;;;;-133;77.6;65270;;;;
2022/05/13 01:08:06;;;;;;;5.1;9.3;;;;;;;-133;78.4;65270;;;;
2022/05/13 01:18:05;;;;;;;5.1;9.3;;;;;;;-133;82.9;65270;;;;
2022/05/13 01:28:05;;;;;;;4.8;10.9;;;;;;;-133;83.1;65270;;;;
2022/05/13 01:39:05;;;;;;;4.8;10.9;;;;;;;-133;83.4;65270;;;;
2022/05/13 01:49:05;;;;;;;4.8;10.9;;;;;;;-133;83.9;65270;;;;
2022/05/13 02:00:05;;;;;;;4.1;8;;;;;;;-133;85.5;65270;;;;
2022/05/13 02:11:05;;;;;;;4.1;8;;;;;;;-133;84.1;65270;;;;
2022/05/13 02:22:05;;;;;;;4.1;8;;;;;;;-133;84.1;65270;;;;
2022/05/13 02:32:05;;;;;;;4.4;11.1;;;;;;;-133;83.5;65270;;;;
2022/05/13 02:42:05;;;;;;;4.4;11.1;;;;;;;-133;84.7;65270;;;;
2022/05/13 02:53:05;;;;;;;4.4;11.1;;;;;;;-133;84.2;65270;;;;
2022/05/13 03:03:05;;;;;;;4.4;9.9;;;;;;;-133;84.7;65280;;;;
2022/05/13 03:14:05;;;;;;;4.4;9.9;;;;;;;-133;85;65270;;;;
2022/05/13 03:24:05;;;;;;;4.4;9.9;;;;;;;-133;86.8;65270;;;;
2022/05/13 03:35:05;;;;;;;5.9;13.1;;;;;;;-133;84.7;65270;;;;
2022/05/13 03:45:05;;;;;;;5.9;13.1;;;;;;;-133;84.2;65270;;;;
2022/05/13 03:56:05;;;;;;;4.7;12.2;;;;;;;-133;85.1;65270;;;;
2022/05/13 04:17:05;;;;;;;4.7;12.2;;;;;;;-133;84;65270;;;;
2022/05/13 04:28:05;;;;;;;5;11.1;;;;;;;-133;83.7;65270;;;;
2022/05/13 04:38:05;;;;;;;5;11.1;;;;;;;-133;82.6;65260;;;;
2022/05/13 04:49:05;;;;;;;5;11.1;;;;;;;-133;82.6;65260;;;;
2022/05/13 04:59:05;;;;;;;4.1;8.7;;;;;;;-133;80.5;65270;;;;
2022/05/13 05:09:05;;;;;;;4.1;8.7;;;;;;;-133;80.5;65260;;;;
2022/05/13 05:19:06;;;;;;;4.1;8.7;;;;;;;-133;78.1;65260;;;;
2022/05/13 05:30:05;;;;;;;7.1;14.2;;;;;;;-133;77.8;65260;;;;
2022/05/13 05:40:05;;;;;;;7.1;14.2;;;;;;;-133;78.4;65260;;;;
2022/05/13 05:51:05;;;;;;;7.1;14.2;;;;;;;-133;73.5;65250;;;;
2022/05/13 06:01:07;;;;;;;7.8;13.9;;;;;;;-133;68.6;65250;;;;
2022/05/13 06:12:06;;;;;;;7.8;13.9;;;;;;;-133;69.8;65250;;;;
2022/05/13 06:23:05;;;;;;;7.8;13.9;;;;;;;-133;65;65250;;;;
2022/05/13 06:34:05;;;;;;;5.1;9.8;;;;;;;-133;61.2;65250;;;;
2022/05/13 06:44:05;;;;;;;5.1;9.8;;;;;;;-133;59.1;65240;;;;
2022/05/13 06:54:07;;;;;;;5.1;9.8;;;;;;;-133;59;65240;;;;
2022/05/13 07:05:05;;;;;;;4.4;10.5;;;;;;;-133;56.9;65240;;;;
2022/05/13 07:15:05;;;;;;;4.4;10.5;;;;;;;-133;54.9;65240;;;;
2022/05/13 07:26:05;;;;;;;4.4;13.2;;;;;;;-133;52.4;65240;;;;
2022/05/13 07:36:05;;;;;;;4.4;13.2;;;;;;;-133;51.8;65230;;;;
2022/05/13 07:46:06;;;;;;;4.4;13.2;;;;;;;-133;50.2;65230;;;;
2022/05/13 07:56:05;;;;;;;3.3;7.4;;;;;;;-133;49.3;65230;;;;
2022/05/13 08:06:06;;;;;;;3.3;7.4;;;;;;;-133;47.7;65240;;;;
2022/05/13 08:17:05;;;;;;;3.3;7.4;;;;;;;-133;48.7;65230;;;;
2022/05/13 08:28:05;;;;;;;5.2;10.6;;;;;;;-133;48.2;65230;;;;
2022/05/13 08:39:06;;;;;;;5.2;10.6;;;;;;;-133;47.4;65230;;;;
2022/05/13 08:49:05;;;;;;;5.2;10.6;;;;;;;-133;45.1;65230;;;;
2022/05/13 08:59:07;;;;;;;6.1;21.2;;;;;;;-133;42.8;65230;;;;
2022/05/13 09:09:05;;;;;;;6.1;21.2;;;;;;;-133;44.4;65230;;;;
2022/05/13 09:20:06;;;;;;;6.1;21.2;;;;;;;-133;45.5;65230;;;;
2022/05/13 09:31:05;;;;;;;4.5;10.8;;;;;;;-133;46.7;65230;;;;
2022/05/13 09:41:05;;;;;;;4.5;10.8;;;;;;;-133;47.2;65230;;;;
2022/05/13 09:52:06;;;;;;;4.5;10.8;;;;;;;-133;46.7;65240;;;;
2022/05/13 10:02:05;;;;;;;4.9;9.1;;;;;;;-133;46.7;65230;;;;
2022/05/13 10:14:09;;;;;;;4.9;9.1;;;;;;;-133;48.1;65230;;;;
2022/05/13 10:23:05;;;;;;;4.9;9.1;;;;;;;-133;49.1;65230;;;;
2022/05/13 10:34:05;;;;;;;5.5;10.9;;;;;;;-133;49.4;65230;;;;
2022/05/13 10:44:05;;;;;;;5.5;10.9;;;;;;;-133;49.7;65240;;;;
2022/05/13 10:55:05;;;;;;;5.5;10.9;;;;;;;-133;47.4;65230;;;;
2022/05/13 11:06:06;;;;;;;4.2;8.1;;;;;;;-133;46.3;65240;;;;
2022/05/13 11:17:05;;;;;;;4.2;8.1;;;;;;;-133;47.9;65240;;;;
2022/05/13 11:28:05;;;;;;;4;7.8;;;;;;;-133;48.1;65240;;;;
2022/05/13 11:38:05;;;;;;;4;7.8;;;;;;;-133;47.9;65230;;;;
2022/05/13 11:48:05;;;;;;;4;7.8;;;;;;;-133;47.4;65240;;;;
2022/05/13 11:59:09;;;;;;;3.2;7.6;;;;;;;-133;47.2;65240;;;;
2022/05/13 12:10:05;;;;;;;3.2;7.6;;;;;;;-133;46.1;65240;;;;
2022/05/13 12:20:05;;;;;;;3.2;7.6;;;;;;;-133;44.1;65240;;;;
2022/05/13 12:31:05;;;;;;;2.8;6.9;;;;;;;-133;43.5;65230;;;;
2022/05/13 12:42:06;;;;;;;2.8;6.9;;;;;;;-133;42.8;65240;;;;
2022/05/13 12:53:05;;;;;;;2.8;6.9;;;;;;;-133;44;65230;;;;
2022/05/13 13:04:06;;;;;;;2.8;7;;;;;;;-133;42.9;65230;;;;
2022/05/13 13:15:05;;;;;;;2.8;7;;;;;;;-133;42.6;65230;;;;
2022/05/13 13:25:05;;;;;;;2.8;7;;;;;;;-133;42.6;65230;;;;
2022/05/13 13:36:05;;;;;;;3;8.6;;;;;;;-133;42;65230;;;;
2022/05/13 13:46:05;;;;;;;2.7;7.1;;;;;;;-133;44;65240;;;;
2022/05/13 13:57:05;;;;;;;2.7;7.1;;;;;;;-133;43.8;65240;;;;
2022/05/13 14:07:05;;;;;;;2.7;7.1;;;;;;;-133;42.2;65240;;;;
2022/05/13 14:18:05;;;;;;;2.5;6.7;;;;;;;-133;41.5;65230;;;;
2022/05/13 14:28:06;;;;;;;2.5;6.7;;;;;;;-133;40.6;65230;;;;
2022/05/13 14:38:05;;;;;;;2.5;6.7;;;;;;;-133;36.7;65230;;;;
2022/05/13 14:49:05;;;;;;;2.5;8.1;;;;;;;-133;36.2;65240;;;;
2022/05/13 14:59:05;;;;;;;2.5;8.1;;;;;;;-133;38.3;65240;;;;
2022/05/13 15:09:05;;;;;;;2.5;8.1;;;;;;;-133;38.6;65230;;;;
2022/05/13 15:20:05;;;;;;;3.3;8.5;;;;;;;-133;35.1;65230;;;;
2022/05/13 15:31:05;;;;;;;3.3;8.5;;;;;;;-133;37.7;65230;;;;
2022/05/13 15:41:07;;;;;;;3.3;8.5;;;;;;;-133;36.6;65230;;;;
2022/05/13 16:01:06;;;;;;;3;7.9;;;;;;;-133;41.1;65240;;;;
2022/05/13 16:11:09;;;;;;;3;7.9;;;;;;;-133;43.3;65240;;;;
2022/05/13 16:21:06;;;;;;;2.3;6.4;;;;;;;-133;45.8;65240;;;;
2022/05/13 16:32:05;;;;;;;2.3;6.4;;;;;;;-133;44.8;65240;;;;
2022/05/13 16:42:06;;;;;;;2.3;6.4;;;;;;;-133;47.7;65240;;;;
2022/05/13 16:53:07;;;;;;;2.9;7.9;;;;;;;-133;47.5;65240;;;;
2022/05/13 17:04:06;;;;;;;2.9;7.9;;;;;;;-133;47.4;65240;;;;
2022/05/13 17:25:06;;;;;;;2.9;10.6;;;;;;;-133;49.9;65250;;;;
2022/05/13 17:35:06;;;;;;;2.9;10.6;;;;;;;-133;51.3;65240;;;;
2022/05/13 17:45:06;;;;;;;2.9;10.6;;;;;;;-133;53.8;65240;;;;
2022/05/13 17:55:06;;;;;;;2.4;6;;;;;;;-133;54.1;65250;;;;
2022/05/13 18:06:06;;;;;;;2.4;6;;;;;;;-133;55.5;65250;;;;
2022/05/13 18:17:06;;;;;;;2.8;7.2;;;;;;;-133;57.4;65250;;;;
2022/05/13 18:28:06;;;;;;;2.8;7.2;;;;;;;-133;57.3;65250;;;;
2022/05/13 18:39:06;;;;;;;2.8;7.2;;;;;;;-133;58.1;65250;;;;
2022/05/13 18:49:06;;;;;;;5.5;11.1;;;;;;;-133;63.1;65250;;;;
2022/05/13 18:59:06;;;;;;;5.5;11.1;;;;;;;-133;62.8;65250;;;;
2022/05/13 19:09:06;;;;;;;5.5;11.1;;;;;;;-133;63.8;65250;;;;
2022/05/13 19:20:06;;;;;;;3.3;7.5;;;;;;;-133;64.6;65250;;;;
2022/05/13 19:30:06;;;;;;;3.3;7.5;;;;;;;-133;65.9;65250;;;;
2022/05/13 19:40:08;;;;;;;3.3;7.5;;;;;;;-133;65.9;65250;;;;
2022/05/13 19:51:06;;;;;;;9.4;28.4;;;;;;;-133;66.1;65250;;;;
2022/05/13 20:01:06;;;;;;;9.4;28.4;;;;;;;-133;65.7;65250;;;;
2022/05/13 20:11:06;;;;;;;9.4;28.4;;;;;;;-133;64.7;65250;;;;
2022/05/13 20:23:10;;;;;;;4.5;9.3;;;;;;;-133;64.7;65250;;;;
2022/05/13 20:32:08;;;;;;;4.5;9.3;;;;;;;-133;63.9;65260;;;;
2022/05/13 20:42:06;;;;;;;4.5;9.3;;;;;;;-133;64;65250;;;;
2022/05/13 20:53:06;;;;;;;4.1;8.8;;;;;;;-133;63.9;65250;;;;
2022/05/13 21:03:06;;;;;;;4.1;8.8;;;;;;;-133;63.3;65260;;;;
2022/05/13 21:14:06;;;;;;;4.1;8.8;;;;;;;-133;62.9;65250;;;;
2022/05/13 21:24:06;;;;;;;4.8;9.4;;;;;;;-133;63;65250;;;;
2022/05/13 21:45:06;;;;;;;4.8;9.4;;;;;;;-133;63.9;65260;;;;
2022/05/13 21:56:06;;;;;;;5;9.3;;;;;;;-133;65.1;65260;;;;
2022/05/13 22:06:06;;;;;;;5;9.3;;;;;;;-133;66.4;65250;;;;
2022/05/13 22:16:06;;;;;;;4.4;9.3;;;;;;;-133;67.2;65250;;;;
2022/05/13 22:27:06;;;;;;;4.4;7.3;;;;;;;-133;68.1;65250;;;;
2022/05/13 22:37:06;;;;;;;4.4;7.3;;;;;;;-133;68.5;65250;;;;
2022/05/13 22:48:06;;;;;;;4.7;7.3;;;;;;;-133;67.7;65250;;;;
2022/05/13 22:58:06;;;;;;;4.7;7.3;;;;;;;-133;68;65250;;;;
2022/05/13 23:19:06;;;;;;;4.9;9.1;;;;;;;-133;66.7;65250;;;;
2022/05/13 23:30:06;;;;;;;4.9;9.1;;;;;;;-133;65.8;65250;;;;
2022/05/13 23:41:06;;;;;;;4.9;9.1;;;;;;;-133;65.4;65260;;;;
2022/05/13 23:51:06;;;;;;;5.2;10.7;;;;;;;-133;66.7;65250;;;;
